ADDS METAR Data INFO
IDs: Format: Raw Decoded Include TAF

Data at: 1020 UTC 12 Dec 2017

KADM 121015Z AUTO 34005KT 10SM CLR 05/M01 A3036 RMK AO2 T00511011
KADM 120955Z AUTO 33006KT 10SM CLR 05/M01 A3036 RMK AO2 T00521011
KADM 120935Z AUTO 35008KT 10SM CLR 06/M01 A3036 RMK AO2 T00611010
KADM 120915Z AUTO 35010G17KT 10SM CLR 07/M01 A3036 RMK AO2 T00731008
KADM 120855Z AUTO 35011KT 10SM CLR 07/M01 A3035 RMK AO2 T00701012
KADM 120835Z AUTO 36009KT 10SM CLR 08/M01 A3035 RMK AO2 T00781013
KADM 120815Z AUTO 35010G14KT 10SM CLR 07/M02 A3034 RMK AO2 T00731019
KADM 120755Z AUTO 34009KT 10SM CLR 07/M03 A3032 RMK AO2 T00711026
KADM 120735Z AUTO 33005KT 10SM CLR 06/M04 A3032 RMK AO2 T00561039
KADM 120715Z AUTO 32005KT 10SM CLR 07/M04 A3031 RMK AO2 T00651042
KADM 120655Z AUTO 33006KT 10SM CLR 07/M04 A3031 RMK AO2 T00671045
KADM 120635Z AUTO 33004KT 10SM CLR 08/M05 A3030 RMK AO2 T00801050
KADM 120615Z AUTO 33005KT 10SM CLR 08/M05 A3030 RMK AO2 T00801052
KADM 120555Z AUTO 35006KT 10SM CLR 09/M05 A3030 RMK AO2 T00901053 10171 20075 402381046
KADM 120535Z AUTO 36009KT 10SM CLR 10/M05 A3029 RMK AO2 T01001050
KADM 120515Z AUTO 36008KT 10SM CLR 09/M05 A3028 RMK AO2 T00931052
KADM 120455Z AUTO 33008KT 10SM CLR 09/M05 A3026 RMK AO2 T00921052
KADM 120435Z AUTO 33007KT 10SM CLR 08/M05 A3025 RMK AO2 T00831055
KADM 120415Z AUTO 33007KT 10SM CLR 08/M06 A3023 RMK AO2 T00791057
KADM 120355Z AUTO 34006KT 10SM CLR 09/M06 A3022 RMK AO2 T00891059
KADM 120350Z 34006KT 10SM SKC 10/M06 A3022
KADM 120335Z AUTO 34005KT 10SM CLR 10/M06 A3020 RMK AO2 T01041057
KADM 120315Z AUTO 33004KT 10SM CLR 09/M06 A3020 RMK AO2 T00861062
KADM 120255Z AUTO 35004KT 10SM CLR 09/M06 A3019 RMK AO2 T00901062
KADM 120250Z 34004KT 10SM SKC 09/M06 A3019
KADM 120235Z AUTO 33005KT 10SM CLR 10/M06 A3019 RMK AO2 T00981060
KADM 120215Z AUTO 32004KT 10SM CLR 12/M06 A3019 RMK AO2 T01191059
KADM 120155Z AUTO 33003KT 10SM CLR 11/M06 A3018 RMK AO2 T01111060
KADM 120150Z 32006KT 10SM SKC 12/M06 A3018
KADM 120135Z AUTO 32007KT 10SM CLR 13/M06 A3017 RMK AO2 T01301057
KADM 120115Z AUTO 33009KT 10SM CLR 14/M06 A3015 RMK AO2 T01401057
KADM 120055Z AUTO 34008KT 10SM CLR 15/M06 A3015 RMK AO2 T01541058
KADM 120050Z 32010G16KT 10SM SKC 16/M06 A3014
KADM 120035Z AUTO 33013KT 10SM CLR 16/M07 A3013 RMK AO2 T01611066
KADM 120015Z AUTO 33009KT 10SM CLR 17/M07 A3013 RMK AO2 T01671066
KADM 112355Z AUTO 33009KT 10SM CLR 16/M05 A3011 RMK AO2 T01611054 10238 20138
KADM 112350Z 32010KT 10SM SKC 14/M05 A3011
KADM 112335Z AUTO 28008KT 10SM CLR 15/M04 A3010 RMK AO2 T01531043
KADM 112315Z AUTO 28008KT 10SM CLR 17/M04 A3010 RMK AO2 T01671045
KADM 112255Z 27008KT 10SM SKC 20/M05 A3008
KADM 112155Z 27008KT 10SM SKC 23/M04 A3008
KADM 112055Z 26008KT 10SM SKC 23/M03 A3008
KADM 111955Z 28006KT 10SM SKC 22/M04 A3009
KADM 111750Z 26007KT 10SM SKC 17/M04 A3017
KADM 111650Z 24006KT 10SM SKC 15/M04 A3019
KADM 111550Z 26006KT 10SM SKC 10/M04 A3022
KADM 111455Z 00000KT 10SM SKC 04/M03 A3021
KADM 111355Z 00000KT 10SM SKC M05/M06 A3023
KADM 111255Z 00000KT 10SM SKC M03/M05 A3022
KADM 111235Z AUTO 00000KT 10SM CLR M03/M06 A3022 RMK AO2 T10301058
KADM 111215Z AUTO 00000KT 10SM CLR M03/M05 A3022 RMK AO2 T10301049
KADM 111155Z AUTO 00000KT 10SM CLR M03/M05 A3021 RMK AO2 T10341047 10004 21041
KADM 111135Z AUTO 00000KT 10SM CLR M03/M05 A3022 RMK AO2 T10351048
KADM 111115Z AUTO 00000KT 10SM CLR M04/M06 A3022 RMK AO2 T10381056
KADM 111055Z AUTO 00000KT 10SM CLR M03/M05 A3023 RMK AO2 T10321053
KADM 111035Z AUTO 00000KT 10SM CLR M03/M05 A3023 RMK AO2 T10291049
KADM 111015Z AUTO 00000KT 10SM CLR M02/M04 A3023 RMK AO2 T10231045
KADM 110955Z AUTO 00000KT 10SM CLR M03/M04 A3024 RMK AO2 T10261044
KADM 110935Z AUTO 00000KT 10SM CLR M02/M04 A3024 RMK AO2 T10211045
KADM 110915Z AUTO 00000KT 10SM CLR M03/M05 A3025 RMK AO2 T10281049
KADM 110855Z AUTO 00000KT 10SM CLR M02/M05 A3026 RMK AO2 T10231051
KADM 110835Z AUTO 00000KT 10SM CLR M02/M05 A3026 RMK AO2 T10161054
KADM 110815Z AUTO 00000KT 10SM CLR M02/M05 A3026 RMK AO2 T10161055
KADM 110755Z AUTO 00000KT 10SM CLR M02/M06 A3025 RMK AO2 T10231056
KADM 110735Z AUTO 00000KT 10SM CLR M01/M05 A3025 RMK AO2 T10121050
KADM 110715Z AUTO 00000KT 10SM CLR M02/M05 A3026 RMK AO2 T10201051
KADM 110655Z AUTO 00000KT 10SM CLR M02/M05 A3025 RMK AO2 T10251048
KADM 110635Z AUTO 00000KT 10SM CLR 00/M06 A3026 RMK AO2 T10051056
KADM 110615Z AUTO 00000KT 10SM CLR 00/M04 A3027 RMK AO2 T10011043
KADM 110555Z AUTO 00000KT 10SM CLR 00/M03 A3027 RMK AO2 T00001035 10141 20000 402251057
KADM 110535Z AUTO 00000KT 10SM CLR 00/M04 A3027 RMK AO2 T00021045
KADM 110515Z AUTO 00000KT 10SM CLR 01/M05 A3027 RMK AO2 T00071052
KADM 110455Z AUTO 32003KT 10SM CLR 02/M04 A3028 RMK AO2 T00181045
KADM 110435Z AUTO 00000KT 10SM CLR 02/M04 A3028 RMK AO2 T00191045
KADM 110415Z AUTO 00000KT 10SM CLR 02/M05 A3028 RMK AO2 T00171049
KADM 110355Z AUTO 00000KT 10SM CLR 03/M05 A3028 RMK AO2 T00271051
KADM 110335Z AUTO 00000KT 10SM CLR 03/M06 A3028 RMK AO2 T00251058
KADM 110315Z AUTO 00000KT 10SM CLR 03/M07 A3027 RMK AO2 T00281066
KADM 110255Z AUTO 00000KT 10SM CLR 03/M06 A3027 RMK AO2 T00321062
KADM 110235Z AUTO 00000KT 10SM CLR 04/M07 A3027 RMK AO2 T00391066
KADM 110215Z AUTO 00000KT 10SM CLR 06/M07 A3027 RMK AO2 T00561068
KADM 110155Z AUTO 00000KT 10SM CLR 05/M07 A3027 RMK AO2 T00471068
KADM 110135Z AUTO 00000KT 10SM CLR 07/M07 A3027 RMK AO2 T00731073
KADM 110115Z AUTO 00000KT 10SM CLR 09/M07 A3027 RMK AO2 T00871074
KADM 110055Z AUTO 27003KT 10SM CLR 09/M07 A3027 RMK AO2 T00861072
KADM 110035Z AUTO 00000KT 10SM CLR 09/M08 A3027 RMK AO2 T00891078
KADM 110015Z AUTO 00000KT 10SM CLR 14/M07 A3026 RMK AO2 T01401072
KADM 102355Z AUTO 33003KT 10SM CLR 12/M07 A3026 RMK AO2 T01171074 10225 20116
KADM 102335Z AUTO 27005KT 10SM CLR 14/M07 A3026 RMK AO2 T01351073
KADM 102315Z AUTO 28006KT 10SM CLR 16/M07 A3026 RMK AO2 T01621070
KADM 102255Z AUTO 27006KT 10SM CLR 18/M06 A3026 RMK AO2 T01821061